Kotor-Varos, Bosnia and Herzegovina
Current Conditions -  °F | °C
As of 7:00 AM on Sunday 23 Nov 2014 (Local Time) from LQBK Reporting Station
Moderate Fog Moderate Fog  
Wind Chill: 30°   Ceiling: Unl
Heat Index: 30°   Visibility: 0.5mi
Dew Point: 30°   Wind: 2mph
Humidity: 100%   Direction: 170°S
Pressure: 30.39"   Gusts: NA
Location:  44.62°N, 17.37°E
Report Text: LQBK 230500Z 17002KT 0800 FZFG NSC M01/M01 Q1029 NOSIG
Loading
Personal Weather Stations






























Interactive Weather Map New forecast layout! Learn more

10-Day Weather Forecast

Advertisements
Track Severe Weather on mobile